Observations for Trim Patrick St
| Time | AQI | Temp °C | Hum % | Pres Pa | CO μg/m³ | H₂S μg/m³ | NO μg/m³ | NO₂ μg/m³ | O₃ μg/m³ | SO₂ μg/m³ | PM1 μg/m³ | PM2.5 μg/m³ | PM10 μg/m³ |
|---|---|---|---|---|---|---|---|---|---|---|---|---|---|
| Friday 7 August 2026 | |||||||||||||
| 14:18 | 2 | 27.7 | 35 | 69,069 | 0 | 0 | 1.51 | 11.13 | 72.8 | 10.26 | 3.71 | 9.72 | 10.69 |
| 14:17 | 2 | 27.7 | 35 | 69,059 | 0 | 0 | 1.52 | 12.2 | 94.32 | 10.39 | 2.86 | 9.72 | 10.7 |
| 14:16 | 2 | 27.7 | 35 | 69,072 | 0 | 0 | 1.51 | 11.29 | 84.14 | 10.13 | 3.71 | 10.55 | 11.6 |
| 14:15 | 2 | 27.7 | 36 | 69,090 | 0 | 0 | 1.48 | 11.57 | 90.86 | 10.77 | 2 | 8.12 | 8.93 |
| 14:14 | 2 | 27.7 | 35 | 69,086 | 0 | 0 | 1.36 | 11.09 | 75.28 | 10.68 | 2.86 | 9.74 | 10.71 |
| 14:13 | 2 | 27.8 | 35 | 69,080 | 0 | 0 | 1.33 | 11.74 | 99.28 | 10.87 | 3.71 | 10.54 | 11.59 |
| 14:12 | 2 | 27.8 | 35 | 69,102 | 0 | 0 | 1.41 | 11.18 | 71.68 | 9.58 | 2.86 | 9.74 | 10.71 |
| 14:11 | 2 | 27.9 | 34 | 69,098 | 0 | 0 | 1.47 | 11.82 | 100.31 | 10.84 | 2.86 | 8.98 | 9.88 |
| 14:10 | 2 | 28 | 35 | 69,065 | 0 | 0 | 1.46 | 12.23 | 93.33 | 10.27 | 2.86 | 8.96 | 9.85 |
| 14:09 | 2 | 28 | 35 | 69,074 | 0 | 0 | 1.41 | 11.69 | 85.84 | 10.41 | 2 | 7.37 | 8.1 |
| 14:08 | 2 | 28 | 34 | 69,069 | 0 | 0 | 1.44 | 12.16 | 89.01 | 9.99 | 2.86 | 9 | 9.9 |
| 14:07 | 2 | 28 | 34 | 69,084 | 0 | 0 | 1.4 | 11.29 | 67.81 | 9.45 | 2 | 8.2 | 9.02 |
| 14:06 | 2 | 27.9 | 36 | 69,074 | 0 | 0 | 1.31 | 10.9 | 73.11 | 9.55 | 3.71 | 9.68 | 10.65 |
| 14:05 | 2 | 27.8 | 36 | 69,086 | 0 | 2.87 | 1.36 | 13.67 | 111.24 | 11.06 | 2.86 | 9.7 | 10.67 |
| 14:04 | 2 | 27.7 | 35 | 69,072 | 0 | 0 | 1.49 | 11.7 | 65.95 | 9.38 | 2 | 8.97 | 9.87 |
| 14:03 | 2 | 27.6 | 35 | 69,088 | 0 | 0 | 1.51 | 10.89 | 77.69 | 9.75 | 2.86 | 8.94 | 9.83 |
| 14:02 | 2 | 27.5 | 35 | 69,082 | 0 | 0 | 1.61 | 11.79 | 93.06 | 9.71 | 2.86 | 8.95 | 9.84 |
| 14:01 | 2 | 27.5 | 36 | 69,102 | 0 | 0 | 1.47 | 9.8 | 77.34 | 10.07 | 3.71 | 9.64 | 10.6 |
| 14:00 | 2 | 27.5 | 35 | 69,102 | 0 | 0 | 1.57 | 11.02 | 83.26 | 11 | 3.71 | 9.72 | 10.7 |
| 13:59 | 2 | 27.5 | 36 | 69,098 | 0 | 0 | 1.28 | 10.89 | 70.94 | 9.87 | 2 | 8.11 | 8.92 |